Terminal Aerodrome Forecast
Issued by NWS

Home | Current Version | Previous Version | Graphics & Text | Print | Product List | Glossary On
Versions: 1 2 3 4 5 6 7 8 9 10 11 12 13 14 15 16
000
FTUS42 KMHX 210539
TAFPGV
TAF
KPGV 210539Z 2106/2206 00000KT P6SM SCT080
      TEMPO 2106/2109 3SM BR
     FM210900 00000KT 3SM BR SCT080
      TEMPO 2109/2112 2SM BR
     FM211300 00000KT P6SM SCT080
      AMD LTD TO CLD VIS AND WIND=

USA.gov is the U.S. government's official web portal to all federal, state and local government web resources and services.